sensor_id;sensor_type;location;lat;lon;timestamp;temperature;humidity
4695;DHT22;2361;49.540;8.390;2022-08-21T00:00:19;20.70;82.50
4695;DHT22;2361;49.540;8.390;2022-08-21T00:02:58;20.60;82.90
4695;DHT22;2361;49.540;8.390;2022-08-21T00:05:28;20.60;83.10
4695;DHT22;2361;49.540;8.390;2022-08-21T00:07:56;20.50;83.40
4695;DHT22;2361;49.540;8.390;2022-08-21T00:10:24;20.50;83.80
4695;DHT22;2361;49.540;8.390;2022-08-21T00:12:52;20.40;84.20
4695;DHT22;2361;49.540;8.390;2022-08-21T00:15:24;20.40;84.40
4695;DHT22;2361;49.540;8.390;2022-08-21T00:17:54;20.30;84.90
4695;DHT22;2361;49.540;8.390;2022-08-21T00:20:22;20.40;85.20
4695;DHT22;2361;49.540;8.390;2022-08-21T00:22:50;20.40;85.40
4695;DHT22;2361;49.540;8.390;2022-08-21T00:25:19;20.40;85.70
4695;DHT22;2361;49.540;8.390;2022-08-21T00:27:52;20.30;86.10
4695;DHT22;2361;49.540;8.390;2022-08-21T00:30:22;20.30;86.30
4695;DHT22;2361;49.540;8.390;2022-08-21T00:32:52;20.20;86.60
4695;DHT22;2361;49.540;8.390;2022-08-21T00:35:27;20.20;87.10
4695;DHT22;2361;49.540;8.390;2022-08-21T00:37:56;20.10;87.50
4695;DHT22;2361;49.540;8.390;2022-08-21T00:40:32;20.10;87.90
4695;DHT22;2361;49.540;8.390;2022-08-21T00:43:04;20.10;88.20
4695;DHT22;2361;49.540;8.390;2022-08-21T00:45:33;20.00;88.80
4695;DHT22;2361;49.540;8.390;2022-08-21T00:48:01;19.90;89.20
4695;DHT22;2361;49.540;8.390;2022-08-21T00:50:32;19.80;89.30
4695;DHT22;2361;49.540;8.390;2022-08-21T00:53:02;19.70;90.10
4695;DHT22;2361;49.540;8.390;2022-08-21T00:55:30;19.60;90.30
4695;DHT22;2361;49.540;8.390;2022-08-21T00:57:59;19.60;90.70
4695;DHT22;2361;49.540;8.390;2022-08-21T01:00:33;19.50;91.00
4695;DHT22;2361;49.540;8.390;2022-08-21T01:03:06;19.50;91.30
4695;DHT22;2361;49.540;8.390;2022-08-21T01:05:36;19.40;91.60
4695;DHT22;2361;49.540;8.390;2022-08-21T01:08:05;19.40;91.60
4695;DHT22;2361;49.540;8.390;2022-08-21T01:10:33;19.50;91.70
4695;DHT22;2361;49.540;8.390;2022-08-21T01:13:05;19.60;91.50
4695;DHT22;2361;49.540;8.390;2022-08-21T01:15:38;19.60;91.60
4695;DHT22;2361;49.540;8.390;2022-08-21T01:18:09;19.60;91.50
4695;DHT22;2361;49.540;8.390;2022-08-21T01:20:40;19.60;91.60
4695;DHT22;2361;49.540;8.390;2022-08-21T01:23:11;19.70;91.70
4695;DHT22;2361;49.540;8.390;2022-08-21T01:25:38;19.70;91.70
4695;DHT22;2361;49.540;8.390;2022-08-21T01:28:13;19.80;91.60
4695;DHT22;2361;49.540;8.390;2022-08-21T01:30:42;19.80;91.80
4695;DHT22;2361;49.540;8.390;2022-08-21T01:33:10;19.80;92.00
4695;DHT22;2361;49.540;8.390;2022-08-21T01:35:37;19.80;92.10
4695;DHT22;2361;49.540;8.390;2022-08-21T01:38:05;19.80;92.10
4695;DHT22;2361;49.540;8.390;2022-08-21T01:40:32;19.80;92.10
4695;DHT22;2361;49.540;8.390;2022-08-21T01:42:59;19.80;92.20
4695;DHT22;2361;49.540;8.390;2022-08-21T01:45:26;19.70;92.30
4695;DHT22;2361;49.540;8.390;2022-08-21T01:47:53;19.70;92.40
4695;DHT22;2361;49.540;8.390;2022-08-21T01:50:21;19.70;92.50
4695;DHT22;2361;49.540;8.390;2022-08-21T01:52:48;19.60;92.70
4695;DHT22;2361;49.540;8.390;2022-08-21T01:55:17;19.60;92.80
4695;DHT22;2361;49.540;8.390;2022-08-21T01:57:46;19.50;92.90
4695;DHT22;2361;49.540;8.390;2022-08-21T02:00:15;19.40;93.10
4695;DHT22;2361;49.540;8.390;2022-08-21T02:02:43;19.40;93.30
4695;DHT22;2361;49.540;8.390;2022-08-21T02:05:12;19.40;93.50
4695;DHT22;2361;49.540;8.390;2022-08-21T02:07:42;19.40;93.70
4695;DHT22;2361;49.540;8.390;2022-08-21T02:10:13;19.30;93.80
4695;DHT22;2361;49.540;8.390;2022-08-21T02:12:42;19.30;93.90
4695;DHT22;2361;49.540;8.390;2022-08-21T02:15:09;19.20;94.20
4695;DHT22;2361;49.540;8.390;2022-08-21T02:17:42;19.10;94.30
4695;DHT22;2361;49.540;8.390;2022-08-21T02:20:16;19.10;94.50
4695;DHT22;2361;49.540;8.390;2022-08-21T02:22:48;19.10;94.70
4695;DHT22;2361;49.540;8.390;2022-08-21T02:25:17;19.10;94.80
4695;DHT22;2361;49.540;8.390;2022-08-21T02:27:46;19.10;95.00
4695;DHT22;2361;49.540;8.390;2022-08-21T02:30:20;19.00;95.20
4695;DHT22;2361;49.540;8.390;2022-08-21T02:32:50;19.10;95.10
4695;DHT22;2361;49.540;8.390;2022-08-21T02:35:18;19.00;94.90
4695;DHT22;2361;49.540;8.390;2022-08-21T02:37:54;19.00;95.10
4695;DHT22;2361;49.540;8.390;2022-08-21T02:40:29;19.00;95.10
4695;DHT22;2361;49.540;8.390;2022-08-21T02:42:58;19.00;95.10
4695;DHT22;2361;49.540;8.390;2022-08-21T02:45:26;19.00;95.00
4695;DHT22;2361;49.540;8.390;2022-08-21T02:48:01;19.00;95.10
4695;DHT22;2361;49.540;8.390;2022-08-21T02:50:36;19.00;95.00
4695;DHT22;2361;49.540;8.390;2022-08-21T02:53:12;19.00;94.90
4695;DHT22;2361;49.540;8.390;2022-08-21T02:55:44;19.00;94.90
4695;DHT22;2361;49.540;8.390;2022-08-21T02:58:15;19.00;94.90
4695;DHT22;2361;49.540;8.390;2022-08-21T03:00:44;19.00;95.00
4695;DHT22;2361;49.540;8.390;2022-08-21T03:03:11;19.00;95.00
4695;DHT22;2361;49.540;8.390;2022-08-21T03:05:40;19.00;95.10
4695;DHT22;2361;49.540;8.390;2022-08-21T03:08:10;19.00;95.20
4695;DHT22;2361;49.540;8.390;2022-08-21T03:10:40;19.00;95.40
4695;DHT22;2361;49.540;8.390;2022-08-21T03:13:10;19.00;95.10
4695;DHT22;2361;49.540;8.390;2022-08-21T03:15:38;19.00;95.20
4695;DHT22;2361;49.540;8.390;2022-08-21T03:18:07;19.00;95.30
4695;DHT22;2361;49.540;8.390;2022-08-21T03:20:35;19.00;95.40
4695;DHT22;2361;49.540;8.390;2022-08-21T03:23:03;18.90;95.20
4695;DHT22;2361;49.540;8.390;2022-08-21T03:25:40;18.90;95.40
4695;DHT22;2361;49.540;8.390;2022-08-21T03:28:13;18.90;95.40
4695;DHT22;2361;49.540;8.390;2022-08-21T03:30:43;18.90;95.50
4695;DHT22;2361;49.540;8.390;2022-08-21T03:33:11;18.80;95.60
4695;DHT22;2361;49.540;8.390;2022-08-21T03:35:43;18.90;95.30
4695;DHT22;2361;49.540;8.390;2022-08-21T03:38:11;18.80;95.20
4695;DHT22;2361;49.540;8.390;2022-08-21T03:40:41;18.80;95.20
4695;DHT22;2361;49.540;8.390;2022-08-21T03:43:09;18.80;95.20
4695;DHT22;2361;49.540;8.390;2022-08-21T03:45:36;18.80;95.00
4695;DHT22;2361;49.540;8.390;2022-08-21T03:48:05;18.80;95.10
4695;DHT22;2361;49.540;8.390;2022-08-21T03:50:37;18.80;95.30
4695;DHT22;2361;49.540;8.390;2022-08-21T03:53:10;18.80;95.40
4695;DHT22;2361;49.540;8.390;2022-08-21T03:55:48;18.80;95.50
4695;DHT22;2361;49.540;8.390;2022-08-21T03:58:17;18.70;95.80
4695;DHT22;2361;49.540;8.390;2022-08-21T04:00:47;18.70;95.90
4695;DHT22;2361;49.540;8.390;2022-08-21T04:03:16;18.70;95.80
4695;DHT22;2361;49.540;8.390;2022-08-21T04:05:44;18.70;95.80
4695;DHT22;2361;49.540;8.390;2022-08-21T04:08:13;18.70;96.00
4695;DHT22;2361;49.540;8.390;2022-08-21T04:10:42;18.60;96.30
4695;DHT22;2361;49.540;8.390;2022-08-21T04:13:10;18.60;96.30
4695;DHT22;2361;49.540;8.390;2022-08-21T04:15:37;18.60;96.40
4695;DHT22;2361;49.540;8.390;2022-08-21T04:18:05;18.60;96.50
4695;DHT22;2361;49.540;8.390;2022-08-21T04:20:32;18.70;96.40
4695;DHT22;2361;49.540;8.390;2022-08-21T04:22:59;18.80;96.40
4695;DHT22;2361;49.540;8.390;2022-08-21T04:25:27;18.70;96.30
4695;DHT22;2361;49.540;8.390;2022-08-21T04:27:55;18.80;96.40
4695;DHT22;2361;49.540;8.390;2022-08-21T04:30:22;18.70;96.50
4695;DHT22;2361;49.540;8.390;2022-08-21T04:32:55;18.70;96.60
4695;DHT22;2361;49.540;8.390;2022-08-21T04:35:25;18.60;96.80
4695;DHT22;2361;49.540;8.390;2022-08-21T04:37:53;18.60;96.90
4695;DHT22;2361;49.540;8.390;2022-08-21T04:40:22;18.50;97.20
4695;DHT22;2361;49.540;8.390;2022-08-21T04:42:53;18.50;97.10
4695;DHT22;2361;49.540;8.390;2022-08-21T04:45:27;18.50;97.20
4695;DHT22;2361;49.540;8.390;2022-08-21T04:47:57;18.60;96.70
4695;DHT22;2361;49.540;8.390;2022-08-21T04:50:30;18.60;96.40
4695;DHT22;2361;49.540;8.390;2022-08-21T04:53:14;18.70;96.70
4695;DHT22;2361;49.540;8.390;2022-08-21T04:55:44;18.70;96.70
4695;DHT22;2361;49.540;8.390;2022-08-21T04:58:15;18.70;96.80
4695;DHT22;2361;49.540;8.390;2022-08-21T05:00:44;18.80;96.60
4695;DHT22;2361;49.540;8.390;2022-08-21T05:03:14;18.90;96.50
4695;DHT22;2361;49.540;8.390;2022-08-21T05:05:43;19.00;96.30
4695;DHT22;2361;49.540;8.390;2022-08-21T05:08:14;19.20;96.30
4695;DHT22;2361;49.540;8.390;2022-08-21T05:10:43;19.40;95.60
4695;DHT22;2361;49.540;8.390;2022-08-21T05:13:12;19.60;95.20
4695;DHT22;2361;49.540;8.390;2022-08-21T05:15:40;19.80;94.80
4695;DHT22;2361;49.540;8.390;2022-08-21T05:18:08;20.10;94.70
4695;DHT22;2361;49.540;8.390;2022-08-21T05:20:35;20.50;94.50
4695;DHT22;2361;49.540;8.390;2022-08-21T05:23:11;20.70;93.60
4695;DHT22;2361;49.540;8.390;2022-08-21T05:25:39;21.10;93.00
4695;DHT22;2361;49.540;8.390;2022-08-21T05:28:07;21.40;92.30
4695;DHT22;2361;49.540;8.390;2022-08-21T05:30:36;21.70;91.80
4695;DHT22;2361;49.540;8.390;2022-08-21T05:33:05;22.00;91.30
4695;DHT22;2361;49.540;8.390;2022-08-21T05:35:32;22.30;90.80
4695;DHT22;2361;49.540;8.390;2022-08-21T05:38:00;22.70;90.30
4695;DHT22;2361;49.540;8.390;2022-08-21T05:40:27;23.10;89.50
4695;DHT22;2361;49.540;8.390;2022-08-21T05:42:55;23.50;88.00
4695;DHT22;2361;49.540;8.390;2022-08-21T05:45:29;23.90;86.50
4695;DHT22;2361;49.540;8.390;2022-08-21T05:48:13;24.40;84.80
4695;DHT22;2361;49.540;8.390;2022-08-21T05:50:44;24.90;82.50
4695;DHT22;2361;49.540;8.390;2022-08-21T05:53:14;25.20;80.70
4695;DHT22;2361;49.540;8.390;2022-08-21T05:55:42;25.30;79.70
4695;DHT22;2361;49.540;8.390;2022-08-21T05:58:16;25.80;78.90
4695;DHT22;2361;49.540;8.390;2022-08-21T06:00:46;26.40;77.10
4695;DHT22;2361;49.540;8.390;2022-08-21T06:03:20;26.90;75.50
4695;DHT22;2361;49.540;8.390;2022-08-21T06:05:51;27.30;73.60
4695;DHT22;2361;49.540;8.390;2022-08-21T06:08:20;27.70;71.90
4695;DHT22;2361;49.540;8.390;2022-08-21T06:10:48;28.10;70.80
4695;DHT22;2361;49.540;8.390;2022-08-21T06:13:18;28.50;69.20
4695;DHT22;2361;49.540;8.390;2022-08-21T06:15:45;28.90;68.40
4695;DHT22;2361;49.540;8.390;2022-08-21T06:18:12;29.50;67.30
4695;DHT22;2361;49.540;8.390;2022-08-21T06:20:40;29.90;65.40
4695;DHT22;2361;49.540;8.390;2022-08-21T06:23:08;30.40;63.70
4695;DHT22;2361;49.540;8.390;2022-08-21T06:25:35;30.80;62.40
4695;DHT22;2361;49.540;8.390;2022-08-21T06:28:05;31.20;61.30
4695;DHT22;2361;49.540;8.390;2022-08-21T06:30:34;31.50;60.10
4695;DHT22;2361;49.540;8.390;2022-08-21T06:33:03;31.80;59.20
4695;DHT22;2361;49.540;8.390;2022-08-21T06:35:30;32.20;58.20
4695;DHT22;2361;49.540;8.390;2022-08-21T06:37:58;32.70;57.40
4695;DHT22;2361;49.540;8.390;2022-08-21T06:40:29;33.40;56.30
4695;DHT22;2361;49.540;8.390;2022-08-21T06:43:11;33.80;55.30
4695;DHT22;2361;49.540;8.390;2022-08-21T06:45:41;34.40;54.20
4695;DHT22;2361;49.540;8.390;2022-08-21T06:48:08;35.00;53.00
4695;DHT22;2361;49.540;8.390;2022-08-21T06:50:35;35.40;51.80
4695;DHT22;2361;49.540;8.390;2022-08-21T06:53:06;35.80;50.70
4695;DHT22;2361;49.540;8.390;2022-08-21T06:55:37;36.50;50.00
4695;DHT22;2361;49.540;8.390;2022-08-21T06:58:04;37.20;48.80
4695;DHT22;2361;49.540;8.390;2022-08-21T07:00:32;37.80;47.90
4695;DHT22;2361;49.540;8.390;2022-08-21T07:02:59;38.20;46.70
4695;DHT22;2361;49.540;8.390;2022-08-21T07:05:28;38.70;46.00
4695;DHT22;2361;49.540;8.390;2022-08-21T07:07:56;39.10;45.30
4695;DHT22;2361;49.540;8.390;2022-08-21T07:10:25;39.30;44.60
4695;DHT22;2361;49.540;8.390;2022-08-21T07:12:54;39.40;44.40
4695;DHT22;2361;49.540;8.390;2022-08-21T07:18:31;39.40;44.00
4695;DHT22;2361;49.540;8.390;2022-08-21T07:20:58;39.50;43.60
4695;DHT22;2361;49.540;8.390;2022-08-21T07:23:30;39.40;43.60
4695;DHT22;2361;49.540;8.390;2022-08-21T07:25:59;39.30;43.60
4695;DHT22;2361;49.540;8.390;2022-08-21T07:28:27;39.20;43.60
4695;DHT22;2361;49.540;8.390;2022-08-21T07:30:56;38.80;43.50
4695;DHT22;2361;49.540;8.390;2022-08-21T07:33:25;38.10;44.00
4695;DHT22;2361;49.540;8.390;2022-08-21T07:35:53;37.70;44.20
4695;DHT22;2361;49.540;8.390;2022-08-21T07:38:22;36.30;44.90
4695;DHT22;2361;49.540;8.390;2022-08-21T07:40:51;35.20;46.20
4695;DHT22;2361;49.540;8.390;2022-08-21T07:43:19;34.00;47.30
4695;DHT22;2361;49.540;8.390;2022-08-21T07:45:48;33.00;48.60
4695;DHT22;2361;49.540;8.390;2022-08-21T07:48:16;32.10;50.00
4695;DHT22;2361;49.540;8.390;2022-08-21T07:50:43;31.70;50.70
4695;DHT22;2361;49.540;8.390;2022-08-21T07:53:10;31.30;51.30
4695;DHT22;2361;49.540;8.390;2022-08-21T07:55:37;31.20;51.90
4695;DHT22;2361;49.540;8.390;2022-08-21T07:58:04;30.90;52.30
4695;DHT22;2361;49.540;8.390;2022-08-21T08:00:31;30.40;52.90
4695;DHT22;2361;49.540;8.390;2022-08-21T08:02:59;30.20;53.20
4695;DHT22;2361;49.540;8.390;2022-08-21T08:05:29;30.10;53.50
4695;DHT22;2361;49.540;8.390;2022-08-21T08:07:57;30.00;53.60
4695;DHT22;2361;49.540;8.390;2022-08-21T08:10:25;29.90;53.90
4695;DHT22;2361;49.540;8.390;2022-08-21T08:12:52;29.70;54.30
4695;DHT22;2361;49.540;8.390;2022-08-21T08:15:23;29.40;54.90
4695;DHT22;2361;49.540;8.390;2022-08-21T08:17:51;29.20;55.00
4695;DHT22;2361;49.540;8.390;2022-08-21T08:20:19;29.20;55.30
4695;DHT22;2361;49.540;8.390;2022-08-21T08:22:47;29.00;55.60
4695;DHT22;2361;49.540;8.390;2022-08-21T08:25:17;29.10;56.00
4695;DHT22;2361;49.540;8.390;2022-08-21T08:27:44;29.30;56.10
4695;DHT22;2361;49.540;8.390;2022-08-21T08:30:14;29.20;56.20
4695;DHT22;2361;49.540;8.390;2022-08-21T08:32:42;29.30;56.20
4695;DHT22;2361;49.540;8.390;2022-08-21T08:35:09;29.20;56.10
4695;DHT22;2361;49.540;8.390;2022-08-21T08:37:38;29.10;56.40
4695;DHT22;2361;49.540;8.390;2022-08-21T08:40:55;29.30;56.60
4695;DHT22;2361;49.540;8.390;2022-08-21T08:43:21;29.30;56.50
4695;DHT22;2361;49.540;8.390;2022-08-21T08:45:51;29.50;56.30
4695;DHT22;2361;49.540;8.390;2022-08-21T08:54:30;29.40;56.90
4695;DHT22;2361;49.540;8.390;2022-08-21T08:57:02;29.10;57.40
4695;DHT22;2361;49.540;8.390;2022-08-21T08:59:39;29.10;57.50
4695;DHT22;2361;49.540;8.390;2022-08-21T09:02:14;29.20;57.40
4695;DHT22;2361;49.540;8.390;2022-08-21T09:04:44;29.20;57.60
4695;DHT22;2361;49.540;8.390;2022-08-21T09:07:30;29.10;57.70
4695;DHT22;2361;49.540;8.390;2022-08-21T09:10:30;29.20;57.60
4695;DHT22;2361;49.540;8.390;2022-08-21T09:13:39;29.40;57.70
4695;DHT22;2361;49.540;8.390;2022-08-21T09:25:20;29.80;57.70
4695;DHT22;2361;49.540;8.390;2022-08-21T09:27:50;29.90;57.20
4695;DHT22;2361;49.540;8.390;2022-08-21T09:30:19;29.90;57.00
4695;DHT22;2361;49.540;8.390;2022-08-21T09:32:51;29.90;57.10
4695;DHT22;2361;49.540;8.390;2022-08-21T09:35:20;30.00;57.10
4695;DHT22;2361;49.540;8.390;2022-08-21T09:38:01;30.00;57.00
4695;DHT22;2361;49.540;8.390;2022-08-21T09:43:05;29.90;56.50
4695;DHT22;2361;49.540;8.390;2022-08-21T09:45:40;29.90;56.30
4695;DHT22;2361;49.540;8.390;2022-08-21T09:48:19;29.80;56.40
4695;DHT22;2361;49.540;8.390;2022-08-21T09:50:53;29.60;55.70
4695;DHT22;2361;49.540;8.390;2022-08-21T09:53:24;29.50;56.70
4695;DHT22;2361;49.540;8.390;2022-08-21T09:55:56;29.60;56.70
4695;DHT22;2361;49.540;8.390;2022-08-21T09:58:48;29.60;56.40
4695;DHT22;2361;49.540;8.390;2022-08-21T10:01:22;29.40;56.20
4695;DHT22;2361;49.540;8.390;2022-08-21T10:04:07;29.50;55.90
4695;DHT22;2361;49.540;8.390;2022-08-21T10:06:35;29.40;55.40
4695;DHT22;2361;49.540;8.390;2022-08-21T10:09:09;29.60;55.50
4695;DHT22;2361;49.540;8.390;2022-08-21T10:20:59;29.40;56.10
4695;DHT22;2361;49.540;8.390;2022-08-21T10:24:02;29.30;56.30
4695;DHT22;2361;49.540;8.390;2022-08-21T10:27:14;28.80;56.40
4695;DHT22;2361;49.540;8.390;2022-08-21T10:29:57;28.70;56.30
4695;DHT22;2361;49.540;8.390;2022-08-21T10:47:35;28.60;56.60
4695;DHT22;2361;49.540;8.390;2022-08-21T10:50:17;28.60;55.40
4695;DHT22;2361;49.540;8.390;2022-08-21T10:55:43;28.50;55.60
4695;DHT22;2361;49.540;8.390;2022-08-21T10:58:40;28.50;56.00
4695;DHT22;2361;49.540;8.390;2022-08-21T11:01:26;28.60;55.30
4695;DHT22;2361;49.540;8.390;2022-08-21T11:05:05;28.60;55.00
4695;DHT22;2361;49.540;8.390;2022-08-21T11:10:14;28.60;55.10
4695;DHT22;2361;49.540;8.390;2022-08-21T11:12:51;28.70;55.30
4695;DHT22;2361;49.540;8.390;2022-08-21T11:15:48;28.80;55.20
4695;DHT22;2361;49.540;8.390;2022-08-21T11:18:32;28.60;54.40
4695;DHT22;2361;49.540;8.390;2022-08-21T11:21:12;28.40;54.50
4695;DHT22;2361;49.540;8.390;2022-08-21T11:24:00;28.30;54.80
4695;DHT22;2361;49.540;8.390;2022-08-21T11:26:45;28.20;55.00
4695;DHT22;2361;49.540;8.390;2022-08-21T11:29:24;28.10;55.30
4695;DHT22;2361;49.540;8.390;2022-08-21T11:35:22;28.00;55.70
4695;DHT22;2361;49.540;8.390;2022-08-21T11:47:11;27.80;55.60
4695;DHT22;2361;49.540;8.390;2022-08-21T11:52:33;27.70;56.10
4695;DHT22;2361;49.540;8.390;2022-08-21T11:55:26;27.80;55.70
4695;DHT22;2361;49.540;8.390;2022-08-21T11:58:02;27.80;55.50
4695;DHT22;2361;49.540;8.390;2022-08-21T12:00:52;27.80;55.20
4695;DHT22;2361;49.540;8.390;2022-08-21T12:03:34;27.80;55.20
4695;DHT22;2361;49.540;8.390;2022-08-21T12:06:07;27.50;55.80
4695;DHT22;2361;49.540;8.390;2022-08-21T12:08:41;27.50;55.80
4695;DHT22;2361;49.540;8.390;2022-08-21T12:16:40;27.70;55.40
4695;DHT22;2361;49.540;8.390;2022-08-21T12:22:09;27.80;55.40
4695;DHT22;2361;49.540;8.390;2022-08-21T12:24:43;27.80;55.50
4695;DHT22;2361;49.540;8.390;2022-08-21T12:27:27;27.90;55.30
4695;DHT22;2361;49.540;8.390;2022-08-21T12:30:02;27.90;56.00
4695;DHT22;2361;49.540;8.390;2022-08-21T12:32:58;27.80;55.50
4695;DHT22;2361;49.540;8.390;2022-08-21T12:35:44;27.60;55.70
4695;DHT22;2361;49.540;8.390;2022-08-21T12:38:20;27.60;56.00
4695;DHT22;2361;49.540;8.390;2022-08-21T12:43:37;27.60;55.80
4695;DHT22;2361;49.540;8.390;2022-08-21T12:46:22;27.60;56.20
4695;DHT22;2361;49.540;8.390;2022-08-21T12:48:58;27.60;56.50
4695;DHT22;2361;49.540;8.390;2022-08-21T12:51:33;27.60;56.40
4695;DHT22;2361;49.540;8.390;2022-08-21T12:54:07;27.70;55.60
4695;DHT22;2361;49.540;8.390;2022-08-21T12:56:35;27.90;55.50
4695;DHT22;2361;49.540;8.390;2022-08-21T12:59:07;28.00;55.60
4695;DHT22;2361;49.540;8.390;2022-08-21T13:01:43;28.00;55.60
4695;DHT22;2361;49.540;8.390;2022-08-21T13:04:34;28.10;55.60
4695;DHT22;2361;49.540;8.390;2022-08-21T13:07:10;27.90;55.60
4695;DHT22;2361;49.540;8.390;2022-08-21T13:09:58;27.90;55.70
4695;DHT22;2361;49.540;8.390;2022-08-21T13:12:30;27.60;55.60
4695;DHT22;2361;49.540;8.390;2022-08-21T13:15:02;27.50;56.00
4695;DHT22;2361;49.540;8.390;2022-08-21T13:17:38;27.60;56.00
4695;DHT22;2361;49.540;8.390;2022-08-21T13:20:19;27.50;55.90
4695;DHT22;2361;49.540;8.390;2022-08-21T13:22:46;27.50;55.90
4695;DHT22;2361;49.540;8.390;2022-08-21T13:25:15;27.50;55.80
4695;DHT22;2361;49.540;8.390;2022-08-21T13:27:57;27.50;56.00
4695;DHT22;2361;49.540;8.390;2022-08-21T13:30:26;27.50;55.80
4695;DHT22;2361;49.540;8.390;2022-08-21T13:32:59;27.50;55.60
4695;DHT22;2361;49.540;8.390;2022-08-21T13:35:36;27.40;55.70
4695;DHT22;2361;49.540;8.390;2022-08-21T13:38:14;27.40;56.10
4695;DHT22;2361;49.540;8.390;2022-08-21T13:40:49;27.50;55.90
4695;DHT22;2361;49.540;8.390;2022-08-21T13:43:21;27.50;55.80
4695;DHT22;2361;49.540;8.390;2022-08-21T13:45:55;27.50;56.00
4695;DHT22;2361;49.540;8.390;2022-08-21T13:48:25;27.40;55.90
4695;DHT22;2361;49.540;8.390;2022-08-21T13:50:56;27.40;55.90
4695;DHT22;2361;49.540;8.390;2022-08-21T13:53:34;27.30;55.90
4695;DHT22;2361;49.540;8.390;2022-08-21T13:56:04;27.30;55.80
4695;DHT22;2361;49.540;8.390;2022-08-21T13:58:42;27.50;55.30
4695;DHT22;2361;49.540;8.390;2022-08-21T14:01:30;27.60;55.70
4695;DHT22;2361;49.540;8.390;2022-08-21T14:04:06;27.40;55.50
4695;DHT22;2361;49.540;8.390;2022-08-21T14:06:41;27.50;55.60
4695;DHT22;2361;49.540;8.390;2022-08-21T14:09:13;27.50;55.40
4695;DHT22;2361;49.540;8.390;2022-08-21T14:12:04;27.50;55.10
4695;DHT22;2361;49.540;8.390;2022-08-21T14:14:50;27.60;54.60
4695;DHT22;2361;49.540;8.390;2022-08-21T14:17:39;27.60;55.00
4695;DHT22;2361;49.540;8.390;2022-08-21T14:20:25;27.50;55.40
4695;DHT22;2361;49.540;8.390;2022-08-21T14:22:57;27.60;54.60
4695;DHT22;2361;49.540;8.390;2022-08-21T14:30:45;27.50;55.00
4695;DHT22;2361;49.540;8.390;2022-08-21T14:33:23;27.50;55.30
4695;DHT22;2361;49.540;8.390;2022-08-21T14:35:53;27.40;55.50
4695;DHT22;2361;49.540;8.390;2022-08-21T14:38:22;27.40;55.90
4695;DHT22;2361;49.540;8.390;2022-08-21T14:40:55;27.30;56.20
4695;DHT22;2361;49.540;8.390;2022-08-21T14:43:26;27.30;55.40
4695;DHT22;2361;49.540;8.390;2022-08-21T14:45:55;27.40;55.10
4695;DHT22;2361;49.540;8.390;2022-08-21T14:48:22;27.40;55.60
4695;DHT22;2361;49.540;8.390;2022-08-21T14:50:49;27.40;55.40
4695;DHT22;2361;49.540;8.390;2022-08-21T14:53:16;27.50;55.70
4695;DHT22;2361;49.540;8.390;2022-08-21T14:55:43;27.40;55.40
4695;DHT22;2361;49.540;8.390;2022-08-21T14:58:29;27.40;56.30
4695;DHT22;2361;49.540;8.390;2022-08-21T15:00:56;27.40;55.40
4695;DHT22;2361;49.540;8.390;2022-08-21T15:03:25;27.40;55.50
4695;DHT22;2361;49.540;8.390;2022-08-21T15:05:52;27.40;55.70
4695;DHT22;2361;49.540;8.390;2022-08-21T15:08:19;27.40;55.50
4695;DHT22;2361;49.540;8.390;2022-08-21T15:10:46;27.30;55.40
4695;DHT22;2361;49.540;8.390;2022-08-21T15:13:34;27.30;55.50
4695;DHT22;2361;49.540;8.390;2022-08-21T15:16:02;27.40;55.60
4695;DHT22;2361;49.540;8.390;2022-08-21T15:18:30;27.40;55.60
4695;DHT22;2361;49.540;8.390;2022-08-21T15:20:57;27.40;55.30
4695;DHT22;2361;49.540;8.390;2022-08-21T15:23:24;27.30;55.30
4695;DHT22;2361;49.540;8.390;2022-08-21T15:25:52;27.30;55.30
4695;DHT22;2361;49.540;8.390;2022-08-21T15:28:20;27.40;55.40
4695;DHT22;2361;49.540;8.390;2022-08-21T15:30:48;27.50;54.80
4695;DHT22;2361;49.540;8.390;2022-08-21T15:33:15;27.50;56.00
4695;DHT22;2361;49.540;8.390;2022-08-21T15:35:43;27.60;54.50
4695;DHT22;2361;49.540;8.390;2022-08-21T15:38:13;27.60;55.10
4695;DHT22;2361;49.540;8.390;2022-08-21T15:40:42;27.70;54.90
4695;DHT22;2361;49.540;8.390;2022-08-21T15:43:27;27.70;55.10
4695;DHT22;2361;49.540;8.390;2022-08-21T15:45:58;27.60;55.50
4695;DHT22;2361;49.540;8.390;2022-08-21T15:48:26;27.50;55.30
4695;DHT22;2361;49.540;8.390;2022-08-21T15:50:53;27.50;55.40
4695;DHT22;2361;49.540;8.390;2022-08-21T15:53:20;27.50;55.40
4695;DHT22;2361;49.540;8.390;2022-08-21T15:55:47;27.40;55.50
4695;DHT22;2361;49.540;8.390;2022-08-21T15:58:15;27.30;55.50
4695;DHT22;2361;49.540;8.390;2022-08-21T16:00:43;27.40;55.10
4695;DHT22;2361;49.540;8.390;2022-08-21T16:03:13;27.40;55.00
4695;DHT22;2361;49.540;8.390;2022-08-21T16:05:44;27.40;55.30
4695;DHT22;2361;49.540;8.390;2022-08-21T16:08:11;27.30;55.30
4695;DHT22;2361;49.540;8.390;2022-08-21T16:10:38;27.30;54.60
4695;DHT22;2361;49.540;8.390;2022-08-21T16:13:59;27.20;55.00
4695;DHT22;2361;49.540;8.390;2022-08-21T16:16:16;27.20;54.90
4695;DHT22;2361;49.540;8.390;2022-08-21T16:18:46;27.30;54.90
4695;DHT22;2361;49.540;8.390;2022-08-21T16:21:14;27.20;54.80
4695;DHT22;2361;49.540;8.390;2022-08-21T16:23:42;27.30;54.30
4695;DHT22;2361;49.540;8.390;2022-08-21T16:26:11;27.30;54.90
4695;DHT22;2361;49.540;8.390;2022-08-21T16:28:45;27.20;54.80
4695;DHT22;2361;49.540;8.390;2022-08-21T16:31:13;27.20;54.50
4695;DHT22;2361;49.540;8.390;2022-08-21T16:33:48;27.20;54.20
4695;DHT22;2361;49.540;8.390;2022-08-21T16:36:22;27.20;54.50
4695;DHT22;2361;49.540;8.390;2022-08-21T16:38:55;27.10;55.00
4695;DHT22;2361;49.540;8.390;2022-08-21T16:41:26;27.10;54.50
4695;DHT22;2361;49.540;8.390;2022-08-21T16:43:56;27.10;55.20
4695;DHT22;2361;49.540;8.390;2022-08-21T16:46:23;27.00;54.60
4695;DHT22;2361;49.540;8.390;2022-08-21T16:48:50;27.00;55.70
4695;DHT22;2361;49.540;8.390;2022-08-21T16:51:17;27.00;54.80
4695;DHT22;2361;49.540;8.390;2022-08-21T16:53:44;27.00;54.50
4695;DHT22;2361;49.540;8.390;2022-08-21T16:56:13;27.00;54.60
4695;DHT22;2361;49.540;8.390;2022-08-21T16:58:44;26.90;54.80
4695;DHT22;2361;49.540;8.390;2022-08-21T17:01:16;26.90;55.00
4695;DHT22;2361;49.540;8.390;2022-08-21T17:03:48;26.80;55.70
4695;DHT22;2361;49.540;8.390;2022-08-21T17:06:17;26.70;55.80
4695;DHT22;2361;49.540;8.390;2022-08-21T17:08:45;26.70;55.80
4695;DHT22;2361;49.540;8.390;2022-08-21T17:11:29;26.60;56.10
4695;DHT22;2361;49.540;8.390;2022-08-21T17:14:22;26.50;55.90
4695;DHT22;2361;49.540;8.390;2022-08-21T17:16:52;26.50;56.00
4695;DHT22;2361;49.540;8.390;2022-08-21T17:19:20;26.40;56.30
4695;DHT22;2361;49.540;8.390;2022-08-21T17:21:48;26.40;56.30
4695;DHT22;2361;49.540;8.390;2022-08-21T17:24:14;26.30;56.10
4695;DHT22;2361;49.540;8.390;2022-08-21T17:26:42;26.30;56.40
4695;DHT22;2361;49.540;8.390;2022-08-21T17:29:11;26.30;56.40
4695;DHT22;2361;49.540;8.390;2022-08-21T17:31:41;26.30;56.80
4695;DHT22;2361;49.540;8.390;2022-08-21T17:34:09;26.20;56.80
4695;DHT22;2361;49.540;8.390;2022-08-21T17:36:37;26.20;57.10
4695;DHT22;2361;49.540;8.390;2022-08-21T17:39:04;26.10;57.20
4695;DHT22;2361;49.540;8.390;2022-08-21T17:41:33;26.10;57.20
4695;DHT22;2361;49.540;8.390;2022-08-21T17:44:04;26.10;57.10
4695;DHT22;2361;49.540;8.390;2022-08-21T17:46:35;26.00;57.50
4695;DHT22;2361;49.540;8.390;2022-08-21T17:49:05;26.00;57.60
4695;DHT22;2361;49.540;8.390;2022-08-21T17:51:33;26.00;57.60
4695;DHT22;2361;49.540;8.390;2022-08-21T17:54:00;25.90;58.00
4695;DHT22;2361;49.540;8.390;2022-08-21T17:56:30;25.80;57.90